sensor_id;sensor_type;location;lat;lon;timestamp;pressure;altitude;pressure_sealevel;temperature;humidity
23427;BME280;41148;45.420;10.952;2023-06-14T00:02:01;100172.31;;;21.63;58.96
23427;BME280;41148;45.420;10.952;2023-06-14T00:04:29;100181.94;;;21.56;59.40
23427;BME280;41148;45.420;10.952;2023-06-14T00:06:56;100183.28;;;21.51;59.74
23427;BME280;41148;45.420;10.952;2023-06-14T00:09:24;100171.47;;;21.40;60.40
23427;BME280;41148;45.420;10.952;2023-06-14T00:11:51;100175.28;;;21.49;60.18
23427;BME280;41148;45.420;10.952;2023-06-14T00:14:19;100173.19;;;21.53;60.41
23427;BME280;41148;45.420;10.952;2023-06-14T00:16:46;100176.25;;;21.48;60.88
23427;BME280;41148;45.420;10.952;2023-06-14T00:19:15;100169.72;;;21.51;60.53
23427;BME280;41148;45.420;10.952;2023-06-14T00:21:43;100168.28;;;21.47;60.81
23427;BME280;41148;45.420;10.952;2023-06-14T00:24:11;100177.38;;;21.46;60.74
23427;BME280;41148;45.420;10.952;2023-06-14T00:26:38;100175.78;;;21.43;60.85
23427;BME280;41148;45.420;10.952;2023-06-14T00:29:06;100172.09;;;21.44;60.88
23427;BME280;41148;45.420;10.952;2023-06-14T00:31:34;100178.25;;;21.46;61.02
23427;BME280;41148;45.420;10.952;2023-06-14T00:34:01;100166.91;;;21.41;61.43
23427;BME280;41148;45.420;10.952;2023-06-14T00:36:28;100173.69;;;21.35;62.04
23427;BME280;41148;45.420;10.952;2023-06-14T00:38:56;100170.63;;;21.29;62.78
23427;BME280;41148;45.420;10.952;2023-06-14T00:41:24;100165.94;;;21.31;62.04
23427;BME280;41148;45.420;10.952;2023-06-14T00:43:51;100173.81;;;21.45;61.74
23427;BME280;41148;45.420;10.952;2023-06-14T00:46:19;100170.25;;;21.33;62.30
23427;BME280;41148;45.420;10.952;2023-06-14T00:48:48;100172.91;;;21.22;62.78
23427;BME280;41148;45.420;10.952;2023-06-14T00:51:16;100175.03;;;21.19;62.83
23427;BME280;41148;45.420;10.952;2023-06-14T00:53:44;100166.53;;;21.23;62.70
23427;BME280;41148;45.420;10.952;2023-06-14T00:56:14;100172.06;;;21.22;63.21
23427;BME280;41148;45.420;10.952;2023-06-14T00:58:43;100178.34;;;21.22;63.55
23427;BME280;41148;45.420;10.952;2023-06-14T01:01:11;100177.47;;;21.10;63.81
23427;BME280;41148;45.420;10.952;2023-06-14T01:03:38;100170.94;;;21.13;63.92
23427;BME280;41148;45.420;10.952;2023-06-14T01:06:20;100169.97;;;21.14;63.90
23427;BME280;41148;45.420;10.952;2023-06-14T01:09:20;100165.53;;;21.13;63.76
23427;BME280;41148;45.420;10.952;2023-06-14T01:12:09;100161.72;;;21.04;63.85
23427;BME280;41148;45.420;10.952;2023-06-14T01:14:39;100159.75;;;21.06;63.93
23427;BME280;41148;45.420;10.952;2023-06-14T01:17:08;100160.00;;;21.14;63.62
23427;BME280;41148;45.420;10.952;2023-06-14T01:19:43;100155.31;;;21.17;63.20
23427;BME280;41148;45.420;10.952;2023-06-14T01:22:14;100165.91;;;21.20;63.00
23427;BME280;41148;45.420;10.952;2023-06-14T01:24:41;100157.28;;;21.26;63.57
23427;BME280;41148;45.420;10.952;2023-06-14T01:27:12;100153.59;;;21.15;64.08
23427;BME280;41148;45.420;10.952;2023-06-14T01:29:40;100152.75;;;21.04;64.64
23427;BME280;41148;45.420;10.952;2023-06-14T01:32:15;100156.91;;;21.08;64.65
23427;BME280;41148;45.420;10.952;2023-06-14T01:34:42;100160.50;;;21.08;64.63
23427;BME280;41148;45.420;10.952;2023-06-14T01:37:11;100155.06;;;20.97;65.39
23427;BME280;41148;45.420;10.952;2023-06-14T01:39:40;100165.03;;;20.85;65.98
23427;BME280;41148;45.420;10.952;2023-06-14T01:44:53;100158.97;;;20.82;66.03
23427;BME280;41148;45.420;10.952;2023-06-14T01:47:21;100162.19;;;20.87;65.85
23427;BME280;41148;45.420;10.952;2023-06-14T01:49:49;100161.34;;;20.86;66.09
23427;BME280;41148;45.420;10.952;2023-06-14T01:52:16;100151.00;;;20.80;66.49
23427;BME280;41148;45.420;10.952;2023-06-14T01:54:46;100155.78;;;20.77;66.84
23427;BME280;41148;45.420;10.952;2023-06-14T01:57:15;100155.13;;;20.62;68.31
23427;BME280;41148;45.420;10.952;2023-06-14T01:59:43;100150.72;;;20.72;67.59
23427;BME280;41148;45.420;10.952;2023-06-14T02:02:15;100154.81;;;20.78;67.40
23427;BME280;41148;45.420;10.952;2023-06-14T02:04:42;100152.97;;;20.78;67.43
23427;BME280;41148;45.420;10.952;2023-06-14T02:07:11;100157.38;;;20.68;67.97
23427;BME280;41148;45.420;10.952;2023-06-14T02:09:41;100142.34;;;20.64;68.57
23427;BME280;41148;45.420;10.952;2023-06-14T02:12:09;100145.03;;;20.64;68.72
23427;BME280;41148;45.420;10.952;2023-06-14T02:14:37;100144.56;;;20.59;68.90
23427;BME280;41148;45.420;10.952;2023-06-14T02:17:05;100151.94;;;20.57;69.71
23427;BME280;41148;45.420;10.952;2023-06-14T02:19:34;100145.66;;;20.56;69.98
23427;BME280;41148;45.420;10.952;2023-06-14T02:22:03;100145.28;;;20.50;70.30
23427;BME280;41148;45.420;10.952;2023-06-14T02:24:31;100145.66;;;20.56;69.88
23427;BME280;41148;45.420;10.952;2023-06-14T02:26:58;100155.53;;;20.69;69.43
23427;BME280;41148;45.420;10.952;2023-06-14T02:29:26;100147.16;;;20.72;69.21
23427;BME280;41148;45.420;10.952;2023-06-14T02:31:53;100159.44;;;20.65;69.76
23427;BME280;41148;45.420;10.952;2023-06-14T02:34:21;100152.41;;;20.51;71.01
23427;BME280;41148;45.420;10.952;2023-06-14T02:36:49;100158.59;;;20.29;72.13
23427;BME280;41148;45.420;10.952;2023-06-14T02:39:17;100153.75;;;20.21;72.40
23427;BME280;41148;45.420;10.952;2023-06-14T02:41:44;100152.94;;;20.32;72.91
23427;BME280;41148;45.420;10.952;2023-06-14T02:44:13;100146.13;;;20.26;72.78
23427;BME280;41148;45.420;10.952;2023-06-14T02:46:41;100147.91;;;20.04;74.42
23427;BME280;41148;45.420;10.952;2023-06-14T02:49:08;100144.78;;;19.97;75.31
23427;BME280;41148;45.420;10.952;2023-06-14T02:51:37;100146.88;;;19.93;75.89
23427;BME280;41148;45.420;10.952;2023-06-14T02:54:05;100142.78;;;19.88;76.62
23427;BME280;41148;45.420;10.952;2023-06-14T02:56:33;100139.50;;;19.95;77.15
23427;BME280;41148;45.420;10.952;2023-06-14T02:59:01;100138.03;;;19.91;77.86
23427;BME280;41148;45.420;10.952;2023-06-14T03:01:29;100141.47;;;19.93;77.74
23427;BME280;41148;45.420;10.952;2023-06-14T03:04:06;100141.88;;;20.00;78.00
23427;BME280;41148;45.420;10.952;2023-06-14T03:06:35;100136.69;;;19.97;78.08
23427;BME280;41148;45.420;10.952;2023-06-14T03:09:04;100138.03;;;19.91;78.14
23427;BME280;41148;45.420;10.952;2023-06-14T03:11:35;100136.50;;;19.87;78.37
23427;BME280;41148;45.420;10.952;2023-06-14T03:14:04;100136.25;;;19.79;78.68
23427;BME280;41148;45.420;10.952;2023-06-14T03:16:32;100124.03;;;19.73;79.15
23427;BME280;41148;45.420;10.952;2023-06-14T03:19:00;100127.59;;;19.74;78.98
23427;BME280;41148;45.420;10.952;2023-06-14T03:21:31;100130.31;;;19.74;79.75
23427;BME280;41148;45.420;10.952;2023-06-14T03:24:02;100140.94;;;19.64;80.44
23427;BME280;41148;45.420;10.952;2023-06-14T03:26:31;100126.34;;;19.67;80.29
23427;BME280;41148;45.420;10.952;2023-06-14T03:29:01;100136.31;;;19.54;80.96
23427;BME280;41148;45.420;10.952;2023-06-14T03:31:29;100131.13;;;19.51;81.46
23427;BME280;41148;45.420;10.952;2023-06-14T03:34:02;100125.94;;;19.60;80.88
23427;BME280;41148;45.420;10.952;2023-06-14T03:36:29;100131.22;;;19.49;81.70
23427;BME280;41148;45.420;10.952;2023-06-14T03:38:57;100123.91;;;19.38;82.37
23427;BME280;41148;45.420;10.952;2023-06-14T03:41:24;100115.63;;;19.29;83.03
23427;BME280;41148;45.420;10.952;2023-06-14T03:43:54;100126.63;;;19.38;82.80
23427;BME280;41148;45.420;10.952;2023-06-14T03:46:22;100125.88;;;19.36;82.77
23427;BME280;41148;45.420;10.952;2023-06-14T03:48:49;100136.47;;;19.27;83.38
23427;BME280;41148;45.420;10.952;2023-06-14T03:51:18;100125.88;;;19.36;82.68
23427;BME280;41148;45.420;10.952;2023-06-14T03:53:45;100128.75;;;19.46;81.79
23427;BME280;41148;45.420;10.952;2023-06-14T03:56:34;100124.78;;;19.39;81.98
23427;BME280;41148;45.420;10.952;2023-06-14T03:59:06;100129.59;;;19.23;83.35
23427;BME280;41148;45.420;10.952;2023-06-14T04:01:34;100124.06;;;19.24;82.64
23427;BME280;41148;45.420;10.952;2023-06-14T04:04:01;100127.09;;;19.32;81.74
23427;BME280;41148;45.420;10.952;2023-06-14T04:06:29;100136.78;;;19.35;81.62
23427;BME280;41148;45.420;10.952;2023-06-14T04:09:00;100135.31;;;19.31;80.93
23427;BME280;41148;45.420;10.952;2023-06-14T04:11:30;100146.72;;;19.34;79.47
23427;BME280;41148;45.420;10.952;2023-06-14T04:13:59;100149.41;;;19.47;78.32
23427;BME280;41148;45.420;10.952;2023-06-14T04:16:26;100147.56;;;19.48;77.97
23427;BME280;41148;45.420;10.952;2023-06-14T04:18:55;100147.91;;;19.43;78.78
23427;BME280;41148;45.420;10.952;2023-06-14T04:21:23;100152.97;;;19.48;78.86
23427;BME280;41148;45.420;10.952;2023-06-14T04:23:53;100158.34;;;19.48;77.24
23427;BME280;41148;45.420;10.952;2023-06-14T04:26:25;100157.19;;;19.52;77.25
23427;BME280;41148;45.420;10.952;2023-06-14T04:28:57;100150.78;;;19.53;77.76
23427;BME280;41148;45.420;10.952;2023-06-14T04:31:31;100157.00;;;19.42;78.57
23427;BME280;41148;45.420;10.952;2023-06-14T04:34:07;100158.91;;;19.53;77.20
23427;BME280;41148;45.420;10.952;2023-06-14T04:36:35;100164.84;;;19.58;76.71
23427;BME280;41148;45.420;10.952;2023-06-14T04:39:05;100163.22;;;19.55;76.40
23427;BME280;41148;45.420;10.952;2023-06-14T04:41:32;100175.22;;;19.51;77.00
23427;BME280;41148;45.420;10.952;2023-06-14T04:44:01;100165.81;;;19.57;77.33
23427;BME280;41148;45.420;10.952;2023-06-14T04:46:33;100166.13;;;19.65;76.58
23427;BME280;41148;45.420;10.952;2023-06-14T04:49:17;100162.56;;;19.64;76.66
23427;BME280;41148;45.420;10.952;2023-06-14T04:51:45;100172.16;;;19.68;77.40
23427;BME280;41148;45.420;10.952;2023-06-14T04:54:14;100175.41;;;19.73;77.55
23427;BME280;41148;45.420;10.952;2023-06-14T04:56:42;100173.44;;;19.76;76.99
23427;BME280;41148;45.420;10.952;2023-06-14T04:59:12;100178.03;;;19.86;76.11
23427;BME280;41148;45.420;10.952;2023-06-14T05:01:40;100179.50;;;19.79;75.87
23427;BME280;41148;45.420;10.952;2023-06-14T05:04:08;100179.38;;;19.81;76.17
23427;BME280;41148;45.420;10.952;2023-06-14T05:06:35;100171.16;;;19.82;76.70
23427;BME280;41148;45.420;10.952;2023-06-14T05:09:03;100172.88;;;19.83;75.42
23427;BME280;41148;45.420;10.952;2023-06-14T05:11:31;100174.66;;;19.95;75.70
23427;BME280;41148;45.420;10.952;2023-06-14T05:13:59;100174.53;;;19.97;75.68
23427;BME280;41148;45.420;10.952;2023-06-14T05:16:27;100176.28;;;19.98;75.98
23427;BME280;41148;45.420;10.952;2023-06-14T05:18:56;100177.78;;;20.02;75.78
23427;BME280;41148;45.420;10.952;2023-06-14T05:21:25;100172.97;;;20.06;75.86
23427;BME280;41148;45.420;10.952;2023-06-14T05:23:52;100179.25;;;20.06;76.98
23427;BME280;41148;45.420;10.952;2023-06-14T05:26:21;100186.78;;;20.14;78.43
23427;BME280;41148;45.420;10.952;2023-06-14T05:28:50;100183.22;;;20.13;79.65
23427;BME280;41148;45.420;10.952;2023-06-14T05:31:20;100180.22;;;20.29;79.76
23427;BME280;41148;45.420;10.952;2023-06-14T05:33:47;100197.69;;;20.36;79.07
23427;BME280;41148;45.420;10.952;2023-06-14T05:36:15;100185.81;;;20.39;78.12
23427;BME280;41148;45.420;10.952;2023-06-14T05:38:44;100188.69;;;20.24;77.84
23427;BME280;41148;45.420;10.952;2023-06-14T05:41:12;100192.03;;;20.28;77.31
23427;BME280;41148;45.420;10.952;2023-06-14T05:43:40;100186.38;;;20.31;78.26
23427;BME280;41148;45.420;10.952;2023-06-14T05:46:07;100202.38;;;20.34;78.42
23427;BME280;41148;45.420;10.952;2023-06-14T05:48:35;100207.31;;;20.40;79.52
23427;BME280;41148;45.420;10.952;2023-06-14T05:51:03;100206.34;;;20.41;77.99
23427;BME280;41148;45.420;10.952;2023-06-14T05:53:31;100202.44;;;20.45;77.10
23427;BME280;41148;45.420;10.952;2023-06-14T05:55:58;100204.56;;;20.53;75.92
23427;BME280;41148;45.420;10.952;2023-06-14T05:58:26;100201.50;;;20.57;75.42
23427;BME280;41148;45.420;10.952;2023-06-14T06:00:53;100194.25;;;20.58;74.86
23427;BME280;41148;45.420;10.952;2023-06-14T06:03:20;100203.72;;;20.64;74.15
23427;BME280;41148;45.420;10.952;2023-06-14T06:05:48;100214.69;;;20.62;72.99
23427;BME280;41148;45.420;10.952;2023-06-14T06:08:16;100214.94;;;20.70;72.00
23427;BME280;41148;45.420;10.952;2023-06-14T06:10:44;100212.97;;;20.61;72.63
23427;BME280;41148;45.420;10.952;2023-06-14T06:13:11;100208.88;;;20.55;71.86
23427;BME280;41148;45.420;10.952;2023-06-14T06:15:39;100213.06;;;20.60;72.84
23427;BME280;41148;45.420;10.952;2023-06-14T06:18:06;100210.00;;;20.64;72.81
23427;BME280;41148;45.420;10.952;2023-06-14T06:20:35;100218.88;;;20.66;72.42
23427;BME280;41148;45.420;10.952;2023-06-14T06:23:03;100211.84;;;20.64;71.95
23427;BME280;41148;45.420;10.952;2023-06-14T06:25:31;100218.13;;;20.64;72.30
23427;BME280;41148;45.420;10.952;2023-06-14T06:27:59;100221.69;;;20.65;72.57
23427;BME280;41148;45.420;10.952;2023-06-14T06:30:26;100230.56;;;20.67;72.84
23427;BME280;41148;45.420;10.952;2023-06-14T06:32:54;100233.38;;;20.65;70.73
23427;BME280;41148;45.420;10.952;2023-06-14T06:35:23;100227.63;;;20.70;70.64
23427;BME280;41148;45.420;10.952;2023-06-14T06:37:51;100232.91;;;20.71;71.68
23427;BME280;41148;45.420;10.952;2023-06-14T06:40:19;100226.88;;;20.68;72.22
23427;BME280;41148;45.420;10.952;2023-06-14T06:45:48;100231.72;;;20.75;72.38
23427;BME280;41148;45.420;10.952;2023-06-14T06:48:15;100233.19;;;20.79;71.59
23427;BME280;41148;45.420;10.952;2023-06-14T06:50:44;100245.63;;;20.82;72.46
23427;BME280;41148;45.420;10.952;2023-06-14T06:53:11;100242.28;;;20.78;68.08
23427;BME280;41148;45.420;10.952;2023-06-14T06:55:42;100251.81;;;20.95;67.62
23427;BME280;41148;45.420;10.952;2023-06-14T06:58:10;100243.19;;;20.90;68.74
23427;BME280;41148;45.420;10.952;2023-06-14T07:00:37;100243.44;;;20.87;68.68
23427;BME280;41148;45.420;10.952;2023-06-14T07:03:05;100246.00;;;20.89;68.53
23427;BME280;41148;45.420;10.952;2023-06-14T07:05:33;100245.56;;;20.95;68.08
23427;BME280;41148;45.420;10.952;2023-06-14T07:08:00;100247.59;;;20.91;67.95
23427;BME280;41148;45.420;10.952;2023-06-14T07:10:28;100250.69;;;20.86;68.13
23427;BME280;41148;45.420;10.952;2023-06-14T07:12:55;100243.19;;;20.90;68.53
23427;BME280;41148;45.420;10.952;2023-06-14T07:15:22;100250.09;;;20.94;68.59
23427;BME280;41148;45.420;10.952;2023-06-14T07:17:50;100246.88;;;20.89;68.47
23427;BME280;41148;45.420;10.952;2023-06-14T07:20:18;100256.59;;;20.92;69.02
23427;BME280;41148;45.420;10.952;2023-06-14T07:22:45;100247.03;;;20.99;69.39
23427;BME280;41148;45.420;10.952;2023-06-14T07:25:14;100255.81;;;21.13;68.49
23427;BME280;41148;45.420;10.952;2023-06-14T07:27:45;100250.25;;;21.04;69.15
23427;BME280;41148;45.420;10.952;2023-06-14T07:30:12;100262.69;;;21.06;68.45
23427;BME280;41148;45.420;10.952;2023-06-14T07:32:40;100259.84;;;21.08;69.04
23427;BME280;41148;45.420;10.952;2023-06-14T07:35:08;100265.66;;;21.14;68.37
23427;BME280;41148;45.420;10.952;2023-06-14T07:37:35;100259.38;;;21.14;69.37
23427;BME280;41148;45.420;10.952;2023-06-14T07:40:04;100265.75;;;21.13;70.15
23427;BME280;41148;45.420;10.952;2023-06-14T07:42:34;100262.81;;;21.16;70.07
23427;BME280;41148;45.420;10.952;2023-06-14T07:45:03;100261.34;;;21.23;69.72
23427;BME280;41148;45.420;10.952;2023-06-14T07:47:32;100264.16;;;21.22;69.34
23427;BME280;41148;45.420;10.952;2023-06-14T07:50:00;100264.16;;;21.22;69.12
23427;BME280;41148;45.420;10.952;2023-06-14T07:52:27;100256.44;;;21.28;68.45
23427;BME280;41148;45.420;10.952;2023-06-14T07:54:55;100263.84;;;21.26;68.82
23427;BME280;41148;45.420;10.952;2023-06-14T07:57:23;100255.81;;;21.25;68.42
23427;BME280;41148;45.420;10.952;2023-06-14T07:59:50;100257.88;;;21.21;68.50
23427;BME280;41148;45.420;10.952;2023-06-14T08:02:18;100254.94;;;21.24;68.91
23427;BME280;41148;45.420;10.952;2023-06-14T08:04:46;100260.53;;;21.34;68.35
23427;BME280;41148;45.420;10.952;2023-06-14T08:07:15;100265.31;;;21.41;68.23
23427;BME280;41148;45.420;10.952;2023-06-14T08:09:43;100268.78;;;21.43;68.33
23427;BME280;41148;45.420;10.952;2023-06-14T08:12:10;100267.06;;;21.42;68.33
23427;BME280;41148;45.420;10.952;2023-06-14T08:14:39;100266.44;;;21.50;68.19
23427;BME280;41148;45.420;10.952;2023-06-14T08:17:07;100265.22;;;21.65;66.33
23427;BME280;41148;45.420;10.952;2023-06-14T08:19:34;100270.25;;;21.59;66.58
23427;BME280;41148;45.420;10.952;2023-06-14T08:22:04;100267.53;;;21.70;65.82
23427;BME280;41148;45.420;10.952;2023-06-14T08:24:31;100269.91;;;21.63;65.61
23427;BME280;41148;45.420;10.952;2023-06-14T08:26:59;100272.63;;;21.63;66.35
23427;BME280;41148;45.420;10.952;2023-06-14T08:29:28;100281.59;;;21.64;66.66
23427;BME280;41148;45.420;10.952;2023-06-14T08:31:58;100274.94;;;21.68;66.97
23427;BME280;41148;45.420;10.952;2023-06-14T08:34:25;100276.78;;;21.79;64.87
23427;BME280;41148;45.420;10.952;2023-06-14T08:36:53;100279.25;;;21.82;63.96
23427;BME280;41148;45.420;10.952;2023-06-14T08:39:21;100286.16;;;21.75;63.79
23427;BME280;41148;45.420;10.952;2023-06-14T08:41:50;100277.03;;;21.76;64.10
23427;BME280;41148;45.420;10.952;2023-06-14T08:44:19;100282.09;;;21.69;63.01
23427;BME280;41148;45.420;10.952;2023-06-14T08:46:48;100280.22;;;21.81;63.34
23427;BME280;41148;45.420;10.952;2023-06-14T08:49:17;100283.81;;;21.81;61.81
23427;BME280;41148;45.420;10.952;2023-06-14T08:51:45;100284.69;;;21.82;62.30
23427;BME280;41148;45.420;10.952;2023-06-14T08:54:15;100287.59;;;21.90;61.73
23427;BME280;41148;45.420;10.952;2023-06-14T08:56:42;100297.13;;;21.95;61.47
23427;BME280;41148;45.420;10.952;2023-06-14T08:59:11;100295.38;;;22.06;61.54
23427;BME280;41148;45.420;10.952;2023-06-14T09:01:39;100296.22;;;22.06;60.18
23427;BME280;41148;45.420;10.952;2023-06-14T09:04:18;100294.91;;;22.12;61.00
23427;BME280;41148;45.420;10.952;2023-06-14T09:06:47;100311.19;;;22.12;61.56
23427;BME280;41148;45.420;10.952;2023-06-14T09:09:21;100298.34;;;22.14;62.47
23427;BME280;41148;45.420;10.952;2023-06-14T09:11:50;100299.94;;;22.16;60.95
23427;BME280;41148;45.420;10.952;2023-06-14T09:14:18;100302.66;;;22.16;60.39
23427;BME280;41148;45.420;10.952;2023-06-14T09:16:46;100304.91;;;22.11;60.19
23427;BME280;41148;45.420;10.952;2023-06-14T09:19:21;100303.28;;;22.09;60.15
23427;BME280;41148;45.420;10.952;2023-06-14T09:21:49;100305.50;;;22.15;59.97
23427;BME280;41148;45.420;10.952;2023-06-14T09:24:19;100305.00;;;22.21;60.48
23427;BME280;41148;45.420;10.952;2023-06-14T09:26:47;100307.19;;;22.27;59.56
23427;BME280;41148;45.420;10.952;2023-06-14T09:29:16;100307.69;;;22.32;59.60
23427;BME280;41148;45.420;10.952;2023-06-14T09:31:47;100301.63;;;22.28;59.47
23427;BME280;41148;45.420;10.952;2023-06-14T09:34:16;100303.00;;;22.34;58.60
23427;BME280;41148;45.420;10.952;2023-06-14T09:36:45;100305.59;;;22.24;59.56
23427;BME280;41148;45.420;10.952;2023-06-14T09:39:17;100315.84;;;22.32;59.63
23427;BME280;41148;45.420;10.952;2023-06-14T09:41:44;100316.69;;;22.33;60.15
23427;BME280;41148;45.420;10.952;2023-06-14T09:44:12;100316.44;;;22.36;59.10
23427;BME280;41148;45.420;10.952;2023-06-14T09:46:48;100309.16;;;22.36;59.60
23427;BME280;41148;45.420;10.952;2023-06-14T09:49:15;100307.03;;;22.51;57.20
23427;BME280;41148;45.420;10.952;2023-06-14T09:51:45;100311.19;;;22.55;57.82
23427;BME280;41148;45.420;10.952;2023-06-14T09:54:16;100315.75;;;22.54;58.07
23427;BME280;41148;45.420;10.952;2023-06-14T09:56:47;100308.47;;;22.55;58.34
23427;BME280;41148;45.420;10.952;2023-06-14T09:59:16;100319.47;;;22.53;59.42
23427;BME280;41148;45.420;10.952;2023-06-14T10:01:46;100316.63;;;22.55;59.31
23427;BME280;41148;45.420;10.952;2023-06-14T10:04:19;100307.34;;;22.57;58.54
23427;BME280;41148;45.420;10.952;2023-06-14T10:06:50;100309.19;;;22.57;54.63
23427;BME280;41148;45.420;10.952;2023-06-14T10:09:18;100310.91;;;22.58;55.94
23427;BME280;41148;45.420;10.952;2023-06-14T10:11:46;100309.56;;;22.64;55.80
23427;BME280;41148;45.420;10.952;2023-06-14T10:14:14;100304.72;;;22.67;56.47
23427;BME280;41148;45.420;10.952;2023-06-14T10:16:56;100306.94;;;22.73;54.42
23427;BME280;41148;45.420;10.952;2023-06-14T10:19:42;100300.22;;;22.77;54.77
23427;BME280;41148;45.420;10.952;2023-06-14T10:22:26;100297.25;;;22.92;55.18
23427;BME280;41148;45.420;10.952;2023-06-14T10:24:56;100293.94;;;22.88;55.65
23427;BME280;41148;45.420;10.952;2023-06-14T10:27:24;100298.09;;;22.92;55.15
23427;BME280;41148;45.420;10.952;2023-06-14T10:32:28;100282.53;;;22.94;55.44
23427;BME280;41148;45.420;10.952;2023-06-14T10:35:16;100288.31;;;23.01;55.18
23427;BME280;41148;45.420;10.952;2023-06-14T10:37:46;100290.44;;;22.97;56.30
23427;BME280;41148;45.420;10.952;2023-06-14T10:40:30;100286.59;;;23.00;54.64
23427;BME280;41148;45.420;10.952;2023-06-14T10:42:58;100282.59;;;23.04;55.30
23427;BME280;41148;45.420;10.952;2023-06-14T10:45:26;100285.19;;;23.05;53.88
23427;BME280;41148;45.420;10.952;2023-06-14T10:47:57;100279.66;;;23.07;53.15
23427;BME280;41148;45.420;10.952;2023-06-14T10:50:28;100280.63;;;23.27;52.63
23427;BME280;41148;45.420;10.952;2023-06-14T10:53:23;100277.34;;;23.33;50.68
23427;BME280;41148;45.420;10.952;2023-06-14T10:55:56;100279.13;;;23.43;50.76
23427;BME280;41148;45.420;10.952;2023-06-14T10:58:23;100285.31;;;23.46;49.30
23427;BME280;41148;45.420;10.952;2023-06-14T11:00:51;100277.19;;;23.55;48.93
23427;BME280;41148;45.420;10.952;2023-06-14T11:05:57;100271.94;;;23.63;49.33
23427;BME280;41148;45.420;10.952;2023-06-14T11:11:09;100272.75;;;23.75;44.30
23427;BME280;41148;45.420;10.952;2023-06-14T11:13:42;100256.41;;;23.75;45.66
23427;BME280;41148;45.420;10.952;2023-06-14T11:16:14;100259.38;;;23.72;45.37
23427;BME280;41148;45.420;10.952;2023-06-14T11:18:43;100258.41;;;23.83;44.83
23427;BME280;41148;45.420;10.952;2023-06-14T11:21:15;100260.66;;;24.08;44.88
23427;BME280;41148;45.420;10.952;2023-06-14T11:23:49;100259.22;;;24.04;46.24
23427;BME280;41148;45.420;10.952;2023-06-14T11:26:27;100254.72;;;23.84;44.57
23427;BME280;41148;45.420;10.952;2023-06-14T11:28:56;100253.00;;;23.92;42.55
23427;BME280;41148;45.420;10.952;2023-06-14T11:31:26;100250.31;;;24.02;44.03
23427;BME280;41148;45.420;10.952;2023-06-14T11:33:57;100253.22;;;24.20;43.82
23427;BME280;41148;45.420;10.952;2023-06-14T11:36:33;100230.16;;;24.05;42.89
23427;BME280;41148;45.420;10.952;2023-06-14T11:39:03;100238.88;;;24.08;43.80
23427;BME280;41148;45.420;10.952;2023-06-14T11:41:42;100237.88;;;24.09;44.16
23427;BME280;41148;45.420;10.952;2023-06-14T11:44:12;100232.56;;;24.08;42.79
23427;BME280;41148;45.420;10.952;2023-06-14T11:46:40;100232.25;;;23.91;44.64
23427;BME280;41148;45.420;10.952;2023-06-14T11:49:08;100233.41;;;23.89;45.08
23427;BME280;41148;45.420;10.952;2023-06-14T11:51:37;100235.72;;;23.93;46.33
23427;BME280;41148;45.420;10.952;2023-06-14T11:54:06;100228.84;;;23.99;46.38
23427;BME280;41148;45.420;10.952;2023-06-14T11:56:34;100231.03;;;24.15;44.68
23427;BME280;41148;45.420;10.952;2023-06-14T11:59:02;100221.06;;;24.44;43.71
23427;BME280;41148;45.420;10.952;2023-06-14T12:01:36;100224.63;;;24.35;45.31
23427;BME280;41148;45.420;10.952;2023-06-14T12:04:06;100226.16;;;24.18;45.88
23427;BME280;41148;45.420;10.952;2023-06-14T12:06:34;100222.75;;;24.36;45.40
23427;BME280;41148;45.420;10.952;2023-06-14T12:09:07;100205.69;;;24.24;45.82
23427;BME280;41148;45.420;10.952;2023-06-14T12:11:40;100207.81;;;24.30;45.88
23427;BME280;41148;45.420;10.952;2023-06-14T12:14:08;100206.72;;;24.33;46.61
23427;BME280;41148;45.420;10.952;2023-06-14T12:16:38;100209.00;;;24.37;47.27
23427;BME280;41148;45.420;10.952;2023-06-14T12:19:12;100201.41;;;24.31;47.63
23427;BME280;41148;45.420;10.952;2023-06-14T12:21:41;100193.97;;;24.43;48.31
23427;BME280;41148;45.420;10.952;2023-06-14T12:24:09;100195.25;;;24.48;48.10
23427;BME280;41148;45.420;10.952;2023-06-14T12:26:40;100197.25;;;24.66;46.90
23427;BME280;41148;45.420;10.952;2023-06-14T12:29:10;100203.72;;;24.55;46.95
23427;BME280;41148;45.420;10.952;2023-06-14T12:31:40;100187.91;;;24.68;46.67
23427;BME280;41148;45.420;10.952;2023-06-14T12:34:08;100186.16;;;24.87;45.06
23427;BME280;41148;45.420;10.952;2023-06-14T12:36:36;100191.47;;;24.78;45.36
23427;BME280;41148;45.420;10.952;2023-06-14T12:39:09;100190.09;;;24.55;46.00
23427;BME280;41148;45.420;10.952;2023-06-14T12:41:36;100186.81;;;24.42;48.62
23427;BME280;41148;45.420;10.952;2023-06-14T12:44:04;100181.94;;;24.36;47.67
23427;BME280;41148;45.420;10.952;2023-06-14T12:46:32;100187.66;;;24.42;45.97
23427;BME280;41148;45.420;10.952;2023-06-14T12:49:01;100181.22;;;24.43;46.55
23427;BME280;41148;45.420;10.952;2023-06-14T12:51:28;100186.06;;;24.49;46.72
23427;BME280;41148;45.420;10.952;2023-06-14T12:53:56;100188.53;;;24.52;46.12
23427;BME280;41148;45.420;10.952;2023-06-14T12:56:23;100180.44;;;24.70;44.46
23427;BME280;41148;45.420;10.952;2023-06-14T12:58:52;100176.59;;;24.73;45.61
23427;BME280;41148;45.420;10.952;2023-06-14T13:01:20;100186.78;;;24.71;45.26
23427;BME280;41148;45.420;10.952;2023-06-14T13:03:47;100177.31;;;24.75;45.69
23427;BME280;41148;45.420;10.952;2023-06-14T13:06:17;100172.69;;;24.85;46.47